Time;durP1;ratioP1;P1;durP2;ratioP2;P2;SDS_P1;SDS_P2;PMS_P1;PMS_P2;Temp;Humidity;BMP_temperature;BMP_pressure;BME280_temperature;BME280_humidity;BME280_pressure;Samples;Min_cycle;Max_cycle;Signal;HPM_P1;HPM_P2
2023/08/28 00:00:47;;;;;;;445.85;412.70;;;12.30;85.60;;;;;;5016443;28;20084;-60
2023/08/28 00:03:13;;;;;;;483.05;448.27;;;12.30;85.70;;;;;;5039782;28;20052;-60
2023/08/28 00:05:38;;;;;;;456.42;424.27;;;12.20;85.70;;;;;;5047644;28;20048;-60
2023/08/28 00:08:05;;;;;;;460.50;426.95;;;12.20;85.70;;;;;;5006370;28;20132;-60
2023/08/28 00:10:31;;;;;;;466.98;433.15;;;12.20;85.70;;;;;;5033919;28;20041;-60
2023/08/28 00:12:57;;;;;;;464.70;430.90;;;12.20;85.70;;;;;;5045553;28;20128;-60
2023/08/28 00:15:23;;;;;;;455.33;421.15;;;12.20;85.70;;;;;;5047761;28;20140;-60
2023/08/28 00:17:48;;;;;;;435.48;402.58;;;12.20;85.70;;;;;;5029623;28;20037;-60
2023/08/28 00:20:15;;;;;;;497.83;460.55;;;12.20;85.80;;;;;;5041348;28;20052;-60
2023/08/28 00:22:42;;;;;;;493.90;458.13;;;12.20;85.80;;;;;;5026086;28;20088;-60
2023/08/28 00:25:08;;;;;;;506.63;469.90;;;12.20;85.80;;;;;;5028060;28;20045;-60
2023/08/28 00:27:34;;;;;;;488.35;452.60;;;12.20;85.80;;;;;;5011705;28;20083;-60
2023/08/28 00:30:00;;;;;;;460.60;426.15;;;12.20;85.80;;;;;;5032549;28;20057;-60
2023/08/28 00:32:26;;;;;;;450.83;417.90;;;12.20;85.80;;;;;;5027785;28;20172;-60
2023/08/28 00:34:53;;;;;;;452.65;419.83;;;12.20;85.80;;;;;;5028625;28;20145;-60
2023/08/28 00:37:19;;;;;;;494.17;458.52;;;12.20;85.80;;;;;;5012642;28;20049;-60
2023/08/28 00:39:44;;;;;;;461.05;426.83;;;12.30;85.70;;;;;;5027150;28;20087;-60
2023/08/28 00:42:10;;;;;;;434.02;401.52;;;12.20;85.80;;;;;;5026565;28;20060;-60
2023/08/28 00:44:36;;;;;;;477.60;443.50;;;12.20;85.70;;;;;;5027968;28;20045;-60
2023/08/28 00:47:04;;;;;;;407.65;377.60;;;12.20;85.60;;;;;;5010958;28;20061;-58
2023/08/28 00:49:30;;;;;;;439.52;407.83;;;12.20;85.60;;;;;;5041116;28;20048;-60
2023/08/28 00:52:00;;;;;;;440.63;408.88;;;12.20;85.60;;;;;;5048334;28;20518;-60
2023/08/28 00:54:26;;;;;;;421.23;390.13;;;12.20;85.60;;;;;;5030557;28;20041;-60
2023/08/28 00:56:53;;;;;;;438.15;405.27;;;12.20;85.50;;;;;;5012849;28;20049;-60
2023/08/28 00:59:19;;;;;;;473.58;438.92;;;12.20;85.50;;;;;;5026689;28;20128;-60
2023/08/28 01:01:45;;;;;;;413.67;384.10;;;12.20;85.50;;;;;;5041966;28;20491;-61
2023/08/28 01:04:11;;;;;;;429.67;398.67;;;12.10;85.50;;;;;;5046646;28;20045;-60
2023/08/28 01:06:36;;;;;;;436.38;404.40;;;12.10;85.40;;;;;;5030748;28;20048;-60
2023/08/28 01:09:05;;;;;;;452.35;419.33;;;12.10;85.30;;;;;;5038734;28;20555;-60
2023/08/28 01:11:56;;;;;;;400.98;372.00;;;12.10;85.40;;;;;;5028174;28;20053;-60
2023/08/28 01:14:26;;;;;;;338.38;313.75;;;12.10;85.30;;;;;;5026031;28;20088;-60
2023/08/28 01:16:56;;;;;;;428.02;397.77;;;12.10;85.40;;;;;;5012634;28;20175;-60
2023/08/28 01:19:37;;;;;;;326.13;302.20;;;12.10;85.40;;;;;;5028797;28;20061;-60
2023/08/28 01:22:24;;;;;;;298.77;277.13;;;12.10;85.40;;;;;;5027012;28;20056;-59
2023/08/28 01:25:03;;;;;;;283.00;262.92;;;12.10;85.40;;;;;;5027404;28;20144;-60
2023/08/28 01:27:29;;;;;;;382.02;352.63;;;12.20;85.40;;;;;;5011386;28;20045;-60
2023/08/28 01:30:05;;;;;;;426.38;395.10;;;12.20;85.40;;;;;;5027585;28;20057;-60
2023/08/28 01:32:31;;;;;;;361.88;335.83;;;12.20;85.30;;;;;;5027119;28;20120;-60
2023/08/28 01:34:57;;;;;;;399.73;370.58;;;12.20;85.20;;;;;;5028003;28;20137;-60
2023/08/28 01:37:29;;;;;;;417.10;387.02;;;12.20;85.20;;;;;;5012142;28;20073;-60
2023/08/28 01:40:00;;;;;;;390.30;362.42;;;12.20;85.20;;;;;;5028199;28;20052;-60
2023/08/28 01:42:28;;;;;;;349.80;324.45;;;12.10;85.20;;;;;;5029623;28;20049;-60
2023/08/28 01:44:55;;;;;;;404.00;375.77;;;12.10;85.20;;;;;;5031125;28;20111;-60
2023/08/28 01:47:25;;;;;;;404.73;375.15;;;12.10;85.10;;;;;;5014815;28;20392;-60
2023/08/28 01:49:54;;;;;;;422.35;391.17;;;12.10;85.10;;;;;;5029747;28;20042;-60
2023/08/28 01:52:20;;;;;;;377.42;349.55;;;12.10;85.00;;;;;;5030010;28;20049;-60
2023/08/28 01:54:46;;;;;;;395.45;366.58;;;12.00;85.00;;;;;;5030695;28;20068;-60
2023/08/28 01:57:11;;;;;;;431.77;400.23;;;12.00;85.10;;;;;;5015436;28;20049;-60
2023/08/28 01:59:37;;;;;;;391.98;363.73;;;12.00;85.00;;;;;;5030975;28;20053;-60
2023/08/28 02:02:03;;;;;;;409.98;380.35;;;12.00;85.00;;;;;;5040976;28;20057;-59
2023/08/28 02:04:28;;;;;;;337.10;312.15;;;12.00;85.00;;;;;;5051402;28;20075;-60
2023/08/28 02:06:54;;;;;;;337.05;312.02;;;12.00;85.00;;;;;;5028129;28;20129;-60
2023/08/28 02:09:20;;;;;;;377.45;349.88;;;12.00;84.90;;;;;;5037450;28;20049;-60
2023/08/28 02:11:46;;;;;;;361.58;335.70;;;12.00;84.80;;;;;;5035107;28;20416;-60
2023/08/28 02:14:11;;;;;;;397.40;368.25;;;11.90;84.80;;;;;;5030202;28;20125;-60
2023/08/28 02:16:40;;;;;;;387.45;359.92;;;11.90;84.90;;;;;;5016309;28;20092;-60
2023/08/28 02:19:06;;;;;;;366.85;340.75;;;11.90;84.80;;;;;;5033829;28;20202;-60
2023/08/28 02:21:31;;;;;;;349.88;323.77;;;11.90;84.80;;;;;;5032979;28;20171;-60
2023/08/28 02:23:57;;;;;;;365.95;338.77;;;11.90;85.00;;;;;;5047199;28;20065;-60
2023/08/28 02:26:24;;;;;;;372.55;345.45;;;11.90;85.00;;;;;;5024677;28;20918;-60
2023/08/28 02:28:50;;;;;;;359.65;333.70;;;11.90;85.00;;;;;;5026085;28;20093;-60
2023/08/28 02:31:15;;;;;;;368.85;341.55;;;11.90;85.10;;;;;;5030387;28;20566;-61
2023/08/28 02:33:41;;;;;;;427.02;395.63;;;11.80;85.10;;;;;;5029639;28;20519;-60
2023/08/28 02:36:07;;;;;;;345.60;320.63;;;11.70;85.00;;;;;;5025090;28;20072;-60
2023/08/28 02:38:33;;;;;;;349.52;324.50;;;11.80;85.10;;;;;;5025263;28;20128;-60
2023/08/28 02:41:07;;;;;;;340.92;315.73;;;11.70;85.10;;;;;;5048444;28;20124;-60
2023/08/28 02:43:33;;;;;;;432.50;400.98;;;11.70;85.10;;;;;;5049063;28;20090;-60
2023/08/28 02:46:00;;;;;;;320.80;297.42;;;11.70;85.10;;;;;;5050100;28;20052;-60
2023/08/28 02:48:26;;;;;;;335.38;310.42;;;11.80;85.10;;;;;;5024307;28;20128;-60
2023/08/28 02:50:51;;;;;;;380.83;354.05;;;11.80;85.00;;;;;;5030147;28;20140;-60
2023/08/28 02:53:17;;;;;;;294.75;273.60;;;11.80;85.10;;;;;;5028043;28;20049;-60
2023/08/28 02:56:11;;;;;;;285.83;265.05;;;11.80;85.10;;;;;;5029659;28;20038;-60
2023/08/28 02:58:37;;;;;;;252.63;233.98;;;11.80;85.10;;;;;;5023045;28;20045;-60
2023/08/28 03:01:02;;;;;;;301.17;279.05;;;11.80;85.00;;;;;;5043621;28;20037;-60
2023/08/28 03:03:28;;;;;;;295.55;275.02;;;11.90;85.00;;;;;;5048086;28;20473;-60
2023/08/28 03:05:54;;;;;;;333.10;309.77;;;11.90;85.00;;;;;;5049880;28;20041;-60
2023/08/28 03:08:21;;;;;;;345.27;320.30;;;11.90;85.00;;;;;;5017364;28;20492;-60
2023/08/28 03:10:46;;;;;;;304.63;282.02;;;11.90;84.90;;;;;;5027906;28;20479;-60
2023/08/28 03:13:12;;;;;;;307.60;284.30;;;11.90;85.00;;;;;;5028373;28;20069;-59
2023/08/28 03:15:38;;;;;;;333.20;309.00;;;11.90;84.90;;;;;;5030397;28;20064;-60
2023/08/28 03:18:04;;;;;;;361.20;335.05;;;11.90;84.90;;;;;;5033174;28;20427;-60
2023/08/28 03:20:32;;;;;;;365.38;339.08;;;11.90;84.80;;;;;;5049440;28;20045;-60
2023/08/28 03:22:58;;;;;;;291.05;269.50;;;11.90;84.90;;;;;;5028174;28;20083;-60
2023/08/28 03:25:24;;;;;;;260.95;241.10;;;11.90;85.00;;;;;;5029475;28;20061;-60
2023/08/28 03:27:49;;;;;;;363.08;337.50;;;11.90;85.00;;;;;;5018894;28;20119;-60
2023/08/28 03:30:15;;;;;;;318.25;295.83;;;11.90;85.00;;;;;;5028796;28;20507;-60
2023/08/28 03:32:41;;;;;;;316.92;293.95;;;11.90;85.00;;;;;;5027779;28;20046;-60
2023/08/28 03:35:07;;;;;;;318.92;295.30;;;11.80;84.80;;;;;;5035044;28;20059;-59
2023/08/28 03:37:32;;;;;;;354.58;328.80;;;11.70;84.70;;;;;;5032982;28;20124;-60
2023/08/28 03:39:58;;;;;;;360.92;334.55;;;11.60;84.70;;;;;;5049131;28;20052;-60
2023/08/28 03:42:24;;;;;;;352.15;326.10;;;11.50;84.80;;;;;;5047928;28;20045;-60
2023/08/28 03:44:49;;;;;;;293.20;271.63;;;11.50;84.80;;;;;;5042747;28;20364;-60
2023/08/28 03:47:15;;;;;;;279.35;258.83;;;11.50;85.00;;;;;;5013022;28;20049;-60
2023/08/28 03:49:41;;;;;;;286.30;265.80;;;11.50;85.10;;;;;;5028721;28;20498;-60
2023/08/28 03:52:06;;;;;;;260.27;241.10;;;11.40;85.00;;;;;;5028319;28;20049;-59
2023/08/28 03:54:32;;;;;;;247.30;230.02;;;11.40;85.00;;;;;;5027302;28;20440;-60
2023/08/28 03:56:58;;;;;;;256.25;237.63;;;11.40;85.00;;;;;;5011970;28;20045;-60
2023/08/28 03:59:29;;;;;;;236.70;219.52;;;11.40;85.20;;;;;;5028068;28;20099;-60
2023/08/28 04:01:55;;;;;;;247.52;229.23;;;11.30;85.20;;;;;;5039437;28;20045;-59
2023/08/28 04:04:21;;;;;;;206.13;190.27;;;11.30;85.20;;;;;;5034516;28;20053;-59
2023/08/28 04:06:46;;;;;;;232.13;215.02;;;11.30;85.20;;;;;;5013282;28;20144;-60
2023/08/28 04:09:13;;;;;;;218.77;202.80;;;11.30;85.20;;;;;;5024863;28;20508;-60
2023/08/28 04:11:39;;;;;;;265.80;246.25;;;11.30;85.20;;;;;;5032183;28;20052;-59
2023/08/28 04:14:04;;;;;;;244.32;226.45;;;11.30;85.30;;;;;;5017706;28;20053;-59
2023/08/28 04:16:30;;;;;;;226.18;209.80;;;11.30;85.40;;;;;;5006173;28;20471;-60
2023/08/28 04:18:56;;;;;;;251.90;233.60;;;11.30;85.40;;;;;;5023592;28;20053;-60
2023/08/28 04:21:21;;;;;;;249.95;231.93;;;11.30;85.50;;;;;;5038272;28;20428;-60
2023/08/28 04:23:47;;;;;;;290.95;270.27;;;11.30;85.60;;;;;;5026937;28;20476;-60
2023/08/28 04:26:13;;;;;;;235.43;218.43;;;11.40;85.60;;;;;;5017677;28;20504;-60
2023/08/28 04:28:38;;;;;;;239.10;221.52;;;11.40;85.60;;;;;;5021507;28;20049;-59
2023/08/28 04:31:08;;;;;;;245.10;227.45;;;11.40;85.50;;;;;;5028244;28;20429;-60
2023/08/28 04:33:34;;;;;;;227.73;211.40;;;11.40;85.50;;;;;;5021886;28;20041;-60
2023/08/28 04:35:59;;;;;;;224.60;207.90;;;11.50;85.50;;;;;;5014736;28;20052;-60
2023/08/28 04:38:25;;;;;;;230.57;214.13;;;11.50;85.50;;;;;;5014666;28;20134;-60
2023/08/28 04:40:51;;;;;;;262.20;243.07;;;11.50;85.50;;;;;;5009219;28;20038;-60
2023/08/28 04:43:16;;;;;;;253.57;234.48;;;11.50;85.50;;;;;;5024347;28;20049;-60
2023/08/28 04:45:42;;;;;;;322.35;298.92;;;11.50;85.50;;;;;;5025494;28;20167;-60
2023/08/28 04:48:08;;;;;;;314.83;292.20;;;11.60;85.50;;;;;;5006077;28;20054;-60
2023/08/28 04:50:33;;;;;;;305.77;282.73;;;11.70;85.50;;;;;;5012287;28;20076;-60
2023/08/28 04:52:59;;;;;;;294.10;272.55;;;11.70;85.50;;;;;;5019612;28;20107;-60
2023/08/28 04:55:25;;;;;;;303.83;281.17;;;11.70;85.50;;;;;;5028442;28;20048;-60
2023/08/28 04:57:50;;;;;;;397.63;367.05;;;11.70;85.50;;;;;;5012459;28;20042;-59
2023/08/28 05:00:16;;;;;;;352.45;326.95;;;11.80;85.40;;;;;;5027320;28;20455;-60
2023/08/28 05:02:42;;;;;;;300.40;279.35;;;11.80;85.50;;;;;;5041056;28;20284;-60
2023/08/28 05:05:08;;;;;;;321.65;298.55;;;11.90;85.40;;;;;;5041471;28;20049;-59
2023/08/28 05:07:33;;;;;;;320.00;297.30;;;11.90;85.40;;;;;;5018514;28;20053;-60
2023/08/28 05:09:59;;;;;;;318.65;295.38;;;11.90;85.30;;;;;;5027739;28;20045;-60
2023/08/28 05:12:25;;;;;;;347.55;323.38;;;11.90;85.30;;;;;;5028466;28;20563;-59
2023/08/28 05:14:51;;;;;;;314.67;292.17;;;11.90;85.20;;;;;;5027636;28;20057;-60
2023/08/28 05:17:16;;;;;;;346.15;321.40;;;11.90;85.10;;;;;;5015878;28;20049;-60
2023/08/28 05:19:42;;;;;;;358.70;333.15;;;11.90;85.10;;;;;;5031629;28;20099;-60
2023/08/28 05:22:08;;;;;;;382.52;355.23;;;11.90;85.20;;;;;;5030982;28;20056;-60
2023/08/28 05:24:33;;;;;;;355.52;329.90;;;11.90;85.30;;;;;;5030943;28;20385;-60
2023/08/28 05:26:59;;;;;;;365.58;339.23;;;11.90;85.20;;;;;;5015763;28;20053;-60
2023/08/28 05:29:25;;;;;;;376.30;348.48;;;11.90;85.40;;;;;;5030201;28;20480;-60
2023/08/28 05:31:50;;;;;;;403.42;373.85;;;11.90;85.40;;;;;;5031429;28;20050;-60
2023/08/28 05:34:16;;;;;;;385.55;357.42;;;12.00;85.40;;;;;;5029987;28;20412;-60
2023/08/28 05:36:42;;;;;;;408.95;379.23;;;11.90;85.30;;;;;;5005604;28;20060;-60
2023/08/28 05:39:07;;;;;;;399.63;370.70;;;12.00;85.40;;;;;;5014495;28;20123;-60
2023/08/28 05:41:33;;;;;;;348.83;323.55;;;12.00;85.30;;;;;;5027990;28;20530;-60
2023/08/28 05:43:59;;;;;;;389.98;361.90;;;12.00;85.20;;;;;;5017275;28;20459;-60
2023/08/28 05:46:24;;;;;;;389.25;360.88;;;12.00;85.30;;;;;;5004680;28;20371;-61
2023/08/28 05:48:50;;;;;;;406.02;377.15;;;12.00;85.30;;;;;;5023043;28;20048;-60
2023/08/28 05:51:16;;;;;;;375.77;348.90;;;12.00;85.20;;;;;;5023614;28;20115;-60
2023/08/28 05:53:42;;;;;;;395.95;367.55;;;12.10;85.20;;;;;;5023329;28;20131;-60
2023/08/28 05:56:08;;;;;;;440.13;407.90;;;12.20;85.20;;;;;;5024342;28;20041;-60
2023/08/28 05:58:34;;;;;;;447.25;415.35;;;12.30;85.10;;;;;;5004336;28;20049;-60
2023/08/28 06:01:00;;;;;;;447.13;414.70;;;12.50;85.10;;;;;;5030334;28;20408;-60
2023/08/28 06:03:25;;;;;;;450.63;418.05;;;12.50;85.10;;;;;;5026154;28;20046;-60
2023/08/28 06:05:51;;;;;;;420.80;390.02;;;12.50;85.10;;;;;;5030524;28;20488;-60
2023/08/28 06:08:17;;;;;;;459.63;426.15;;;12.70;84.90;;;;;;5014403;28;20073;-60
2023/08/28 06:10:42;;;;;;;451.65;418.38;;;12.70;84.70;;;;;;5025572;28;20043;-60
2023/08/28 06:13:08;;;;;;;441.17;409.17;;;12.80;84.70;;;;;;5030100;28;20049;-60
2023/08/28 06:15:34;;;;;;;505.95;468.77;;;12.90;84.50;;;;;;4998192;28;20496;-60
2023/08/28 06:18:00;;;;;;;533.45;493.10;;;13.00;84.40;;;;;;5010213;28;20727;-60
2023/08/28 06:20:26;;;;;;;485.13;448.65;;;13.10;84.20;;;;;;5029146;28;20042;-60
2023/08/28 06:22:52;;;;;;;483.40;446.88;;;13.10;84.20;;;;;;5020773;28;20485;-60
2023/08/28 06:25:18;;;;;;;507.33;468.95;;;13.20;84.20;;;;;;5025869;28;20052;-60
2023/08/28 06:27:43;;;;;;;490.77;453.50;;;13.30;84.20;;;;;;5008123;28;20137;-60
2023/08/28 06:30:09;;;;;;;540.47;499.23;;;13.30;84.20;;;;;;5032249;28;20076;-60
2023/08/28 06:32:35;;;;;;;566.97;523.25;;;13.50;84.00;;;;;;5029330;28;20046;-60
2023/08/28 06:35:01;;;;;;;563.40;519.60;;;13.50;83.40;;;;;;5031150;28;20510;-60
2023/08/28 06:37:28;;;;;;;524.38;485.13;;;13.50;83.40;;;;;;4109276;28;10000750;-60
2023/08/28 06:39:54;;;;;;;596.83;549.03;;;13.50;83.30;;;;;;4947302;28;20292;-61
2023/08/28 06:42:19;;;;;;;600.55;555.67;;;13.60;83.50;;;;;;4975130;28;20078;-60
2023/08/28 06:44:45;;;;;;;522.97;484.35;;;13.70;83.50;;;;;;4978382;28;20394;-60
2023/08/28 06:47:11;;;;;;;522.03;482.48;;;13.70;83.60;;;;;;4963550;28;20650;-60
2023/08/28 06:49:37;;;;;;;533.03;492.50;;;13.80;83.50;;;;;;4978712;28;20050;-60
2023/08/28 06:52:04;;;;;;;615.13;563.88;;;13.90;83.60;;;;;;4978500;28;20063;-60
2023/08/28 06:54:32;;;;;;;516.45;475.10;;;13.90;83.60;;;;;;4978272;28;20209;-60
2023/08/28 06:56:58;;;;;;;569.20;522.88;;;14.00;83.30;;;;;;4963022;28;20054;-60
2023/08/28 06:59:24;;;;;;;589.80;539.70;;;14.00;83.50;;;;;;4977389;28;20090;-60
2023/08/28 07:01:50;;;;;;;510.50;472.08;;;14.10;83.40;;;;;;4977518;28;20047;-60
2023/08/28 07:04:16;;;;;;;574.03;527.25;;;14.20;83.30;;;;;;4977040;28;20053;-60
2023/08/28 07:06:41;;;;;;;553.83;508.40;;;14.20;82.80;;;;;;4963747;28;20062;-60
2023/08/28 07:09:07;;;;;;;531.17;490.73;;;14.30;82.90;;;;;;4977362;28;20716;-60
2023/08/28 07:11:33;;;;;;;562.05;517.38;;;14.40;82.90;;;;;;4977403;28;20058;-60
2023/08/28 07:13:58;;;;;;;557.03;512.20;;;14.50;83.00;;;;;;4976437;28;20042;-60
2023/08/28 07:16:24;;;;;;;584.88;538.03;;;14.50;83.00;;;;;;4965627;28;20361;-60
2023/08/28 07:18:50;;;;;;;564.45;520.08;;;14.60;82.90;;;;;;4972554;28;20146;-60
2023/08/28 07:21:16;;;;;;;602.08;552.35;;;14.70;82.80;;;;;;4977272;28;20065;-60
2023/08/28 07:23:42;;;;;;;644.70;588.47;;;14.80;82.80;;;;;;4975813;28;20497;-60
2023/08/28 07:26:08;;;;;;;585.45;538.50;;;14.80;82.70;;;;;;4985053;28;20054;-60
2023/08/28 07:28:34;;;;;;;567.95;522.72;;;15.00;82.70;;;;;;4968277;28;20065;-60
2023/08/28 07:31:01;;;;;;;595.47;546.42;;;15.00;82.10;;;;;;4976906;28;20101;-60
2023/08/28 07:33:27;;;;;;;712.42;646.00;;;15.00;82.20;;;;;;4976969;28;20069;-60
2023/08/28 07:35:53;;;;;;;646.38;591.15;;;15.20;82.10;;;;;;4977508;28;20490;-60
2023/08/28 07:38:18;;;;;;;665.90;607.20;;;15.20;82.00;;;;;;4962144;28;20058;-60
2023/08/28 07:40:47;;;;;;;659.47;601.97;;;15.30;81.50;;;;;;4978311;28;20042;-60
2023/08/28 07:43:13;;;;;;;615.22;564.55;;;15.40;81.00;;;;;;4977753;28;20070;-60
2023/08/28 07:45:39;;;;;;;633.03;580.55;;;15.50;80.60;;;;;;4979381;28;20429;-60
2023/08/28 07:48:05;;;;;;;653.38;597.17;;;15.60;81.00;;;;;;4962221;28;20058;-60
2023/08/28 07:50:31;;;;;;;668.00;610.95;;;15.60;81.20;;;;;;4978593;28;20058;-59
2023/08/28 07:53:00;;;;;;;683.20;625.30;;;15.80;81.20;;;;;;4976468;28;20503;-60
2023/08/28 07:55:26;;;;;;;721.60;652.25;;;15.80;80.90;;;;;;4979002;28;20055;-59
2023/08/28 07:57:52;;;;;;;650.45;593.17;;;15.90;80.50;;;;;;4962015;28;20065;-60
2023/08/28 08:00:20;;;;;;;641.55;587.38;;;16.00;80.90;;;;;;4977391;28;20050;-60
2023/08/28 08:02:48;;;;;;;671.85;615.97;;;16.00;80.80;;;;;;4978028;28;20552;-60
2023/08/28 08:05:14;;;;;;;653.03;595.45;;;16.00;79.50;;;;;;4978454;28;20061;-60
2023/08/28 08:07:40;;;;;;;667.80;613.30;;;16.10;79.10;;;;;;4962163;28;20034;-60
2023/08/28 08:10:10;;;;;;;636.65;584.97;;;16.20;78.10;;;;;;4978663;28;20050;-60
2023/08/28 08:12:38;;;;;;;740.13;671.50;;;16.30;78.10;;;;;;4977333;28;20054;-60
2023/08/28 08:15:05;;;;;;;663.45;607.53;;;16.30;79.00;;;;;;4979732;28;20050;-60
2023/08/28 08:17:30;;;;;;;681.38;624.30;;;16.40;79.00;;;;;;4962557;28;20093;-60
2023/08/28 08:19:56;;;;;;;589.40;543.05;;;16.30;78.60;;;;;;4979493;28;20082;-60
2023/08/28 08:22:22;;;;;;;695.38;634.00;;;16.20;78.50;;;;;;4977674;28;20054;-60
2023/08/28 08:24:47;;;;;;;650.35;598.22;;;16.20;77.90;;;;;;4979174;28;20505;-60
2023/08/28 08:27:13;;;;;;;681.78;623.83;;;16.30;78.20;;;;;;4962166;28;20064;-59
2023/08/28 08:29:39;;;;;;;633.17;580.67;;;16.30;77.50;;;;;;4976921;28;20090;-60
2023/08/28 08:32:05;;;;;;;649.05;596.22;;;16.40;76.70;;;;;;4976775;28;20542;-60
2023/08/28 08:34:32;;;;;;;652.00;598.72;;;16.40;77.30;;;;;;4977638;28;20070;-60
2023/08/28 08:36:58;;;;;;;647.42;590.03;;;16.50;77.30;;;;;;4963022;28;20157;-60
2023/08/28 08:39:24;;;;;;;668.78;610.97;;;16.60;77.20;;;;;;4978123;28;20061;-59
2023/08/28 08:41:50;;;;;;;739.30;673.50;;;16.60;76.40;;;;;;4977378;28;20128;-59
2023/08/28 08:44:15;;;;;;;736.15;672.45;;;16.70;76.40;;;;;;4991654;28;20050;-60
2023/08/28 08:46:44;;;;;;;668.33;613.80;;;16.90;76.50;;;;;;4964171;28;20046;-60
2023/08/28 08:49:13;;;;;;;750.03;684.45;;;17.00;75.30;;;;;;4977153;28;20050;-59
2023/08/28 08:51:42;;;;;;;731.50;665.53;;;17.00;75.50;;;;;;4976501;28;20485;-60
2023/08/28 08:54:25;;;;;;;657.40;604.05;;;17.00;75.70;;;;;;4976313;28;20058;-60
2023/08/28 08:57:00;;;;;;;719.55;657.95;;;16.90;76.50;;;;;;4962195;28;20425;-60
2023/08/28 08:59:29;;;;;;;688.50;630.28;;;16.80;76.70;;;;;;4977501;28;20509;-60
2023/08/28 09:01:55;;;;;;;701.70;641.45;;;16.60;76.90;;;;;;4976513;28;20498;-60
2023/08/28 09:04:21;;;;;;;739.83;673.58;;;16.50;77.20;;;;;;4976503;28;20070;-60
2023/08/28 09:06:48;;;;;;;664.13;608.05;;;16.40;77.50;;;;;;4959544;28;20136;-60
2023/08/28 09:09:15;;;;;;;658.97;605.20;;;16.40;77.90;;;;;;4973701;28;20058;-60
2023/08/28 09:11:45;;;;;;;707.78;647.50;;;16.40;77.60;;;;;;4974939;28;20113;-59
2023/08/28 09:14:11;;;;;;;740.50;673.42;;;16.40;77.70;;;;;;4974996;28;20052;-60
2023/08/28 09:16:37;;;;;;;686.38;627.45;;;16.60;77.10;;;;;;4963127;28;20501;-59
2023/08/28 09:19:03;;;;;;;753.08;684.50;;;16.70;77.90;;;;;;4972435;28;20054;-60
2023/08/28 09:21:35;;;;;;;767.53;697.97;;;16.90;77.50;;;;;;4974880;28;20201;-60
2023/08/28 09:24:01;;;;;;;731.38;664.50;;;16.90;77.20;;;;;;4975629;28;20042;-60
2023/08/28 09:26:27;;;;;;;656.42;603.85;;;16.80;77.10;;;;;;4963920;28;20059;-60
2023/08/28 09:28:59;;;;;;;728.72;668.67;;;16.70;77.30;;;;;;4972743;28;20046;-60
2023/08/28 09:31:35;;;;;;;692.00;634.25;;;16.60;77.20;;;;;;4975700;28;20054;-60
2023/08/28 09:34:03;;;;;;;701.90;639.85;;;16.40;77.40;;;;;;4974324;28;20097;-60
2023/08/28 09:36:34;;;;;;;712.33;648.45;;;16.20;77.40;;;;;;4962764;28;20051;-60
2023/08/28 09:39:05;;;;;;;687.70;631.22;;;16.10;77.60;;;;;;4974837;28;20042;-60
2023/08/28 09:41:49;;;;;;;651.30;598.37;;;16.00;77.80;;;;;;4991338;28;20050;-60
2023/08/28 09:44:17;;;;;;;629.80;578.72;;;15.80;78.10;;;;;;4976300;28;20437;-60
2023/08/28 09:46:43;;;;;;;673.83;617.75;;;15.70;78.60;;;;;;4961076;28;20460;-60
2023/08/28 09:49:11;;;;;;;704.78;642.25;;;15.60;78.90;;;;;;4976250;28;20058;-60
2023/08/28 09:51:45;;;;;;;716.78;653.83;;;15.60;79.50;;;;;;4976123;28;20050;-60
2023/08/28 09:54:13;;;;;;;695.20;632.55;;;15.60;80.10;;;;;;4974989;28;20274;-60
2023/08/28 09:56:39;;;;;;;724.92;662.20;;;15.60;80.20;;;;;;4960342;28;20137;-60
2023/08/28 09:59:09;;;;;;;706.88;643.70;;;15.50;80.40;;;;;;4972075;28;20050;-60
2023/08/28 10:01:36;;;;;;;715.60;651.08;;;15.60;80.50;;;;;;4975443;28;20051;-60
2023/08/28 10:04:08;;;;;;;720.90;656.50;;;15.60;80.70;;;;;;4978339;28;20104;-59
2023/08/28 10:06:35;;;;;;;708.65;645.10;;;15.60;80.90;;;;;;4964318;28;20342;-60
2023/08/28 10:09:05;;;;;;;725.70;660.80;;;15.60;81.10;;;;;;4977216;28;20057;-60
2023/08/28 10:11:36;;;;;;;699.45;639.13;;;15.60;80.90;;;;;;4976595;28;20058;-60
2023/08/28 10:14:04;;;;;;;724.30;657.60;;;15.70;81.10;;;;;;4978540;28;20437;-60
2023/08/28 10:16:34;;;;;;;739.97;671.38;;;15.80;81.20;;;;;;4964791;28;20063;-60
2023/08/28 10:19:09;;;;;;;768.45;699.63;;;15.80;81.40;;;;;;4975734;28;20050;-59
2023/08/28 10:21:35;;;;;;;736.65;670.78;;;15.90;81.60;;;;;;4978165;28;20054;-59
2023/08/28 10:24:02;;;;;;;683.55;624.42;;;15.90;81.70;;;;;;4974627;28;20130;-59
2023/08/28 10:26:29;;;;;;;745.00;678.05;;;16.00;81.80;;;;;;4965509;28;20840;-60
2023/08/28 10:28:55;;;;;;;724.13;659.40;;;16.00;81.90;;;;;;4991874;28;20166;-60
2023/08/28 10:31:23;;;;;;;760.75;691.60;;;16.10;81.90;;;;;;4977694;28;20472;-60
2023/08/28 10:33:50;;;;;;;761.53;692.28;;;16.10;81.80;;;;;;4978140;28;20050;-59
2023/08/28 10:36:17;;;;;;;753.95;684.55;;;16.20;81.50;;;;;;4967560;28;20089;-60
2023/08/28 10:38:43;;;;;;;765.50;695.33;;;16.20;81.30;;;;;;4971317;28;20058;-59
2023/08/28 10:41:11;;;;;;;780.75;707.92;;;16.40;81.60;;;;;;4976542;28;20049;-60
2023/08/28 10:43:38;;;;;;;803.47;729.75;;;16.50;81.50;;;;;;4978720;28;20089;-60
2023/08/28 10:46:06;;;;;;;763.65;694.17;;;16.70;81.40;;;;;;4977221;28;20046;-61
2023/08/28 10:48:36;;;;;;;717.72;656.10;;;16.90;81.10;;;;;;4966733;28;20089;-60
2023/08/28 10:51:02;;;;;;;742.80;676.97;;;17.00;79.70;;;;;;4976932;28;20078;-60
2023/08/28 10:53:28;;;;;;;774.95;704.08;;;17.10;79.10;;;;;;4975054;28;20772;-60
2023/08/28 10:55:55;;;;;;;806.15;732.10;;;17.20;78.50;;;;;;4977067;28;20138;-60
2023/08/28 10:58:21;;;;;;;778.67;708.17;;;17.20;77.50;;;;;;4961650;28;20054;-60
2023/08/28 11:00:47;;;;;;;818.03;741.70;;;17.00;78.40;;;;;;4977329;28;20559;-60
2023/08/28 11:03:17;;;;;;;789.97;716.67;;;16.90;78.70;;;;;;4976286;28;20054;-60
2023/08/28 11:05:44;;;;;;;746.17;678.97;;;16.80;79.00;;;;;;4978936;28;20050;-60
2023/08/28 11:08:13;;;;;;;811.30;734.65;;;16.70;79.30;;;;;;4961594;28;20165;-60
2023/08/28 11:10:47;;;;;;;821.25;744.67;;;16.60;79.60;;;;;;4992876;28;20071;-60
2023/08/28 11:13:39;;;;;;;825.28;748.20;;;16.50;79.70;;;;;;4976314;28;20050;-60
2023/08/28 11:16:08;;;;;;;703.08;643.30;;;16.50;79.30;;;;;;4975377;28;20069;-61
2023/08/28 11:18:37;;;;;;;763.13;694.75;;;16.40;79.50;;;;;;4968718;28;20055;-60
2023/08/28 11:21:07;;;;;;;768.30;699.22;;;16.40;79.60;;;;;;4977073;28;20069;-60
2023/08/28 11:23:42;;;;;;;769.17;698.53;;;16.40;79.90;;;;;;4975994;28;20092;-60
2023/08/28 11:26:17;;;;;;;737.13;669.83;;;16.40;79.70;;;;;;4972442;28;20510;-61
2023/08/28 11:28:47;;;;;;;772.05;700.67;;;16.50;79.80;;;;;;4972273;28;20058;-60
2023/08/28 11:31:14;;;;;;;713.80;649.97;;;16.60;80.20;;;;;;4975152;28;20534;-60
2023/08/28 11:33:42;;;;;;;726.35;663.17;;;16.80;79.60;;;;;;4975046;28;20047;-60
2023/08/28 11:36:10;;;;;;;707.75;645.40;;;17.00;79.50;;;;;;4970432;28;20058;-60
2023/08/28 11:38:38;;;;;;;717.13;653.67;;;17.20;79.10;;;;;;4972662;28;20565;-60
2023/08/28 11:41:08;;;;;;;664.17;609.70;;;17.40;78.30;;;;;;4979339;28;20090;-60
2023/08/28 11:43:38;;;;;;;668.05;610.42;;;17.50;77.50;;;;;;4976785;28;20050;-60
2023/08/28 11:46:06;;;;;;;745.30;676.33;;;17.50;77.10;;;;;;4976698;28;20050;-60
2023/08/28 11:48:37;;;;;;;675.15;618.42;;;17.50;76.60;;;;;;4981352;28;20485;-60
2023/08/28 11:51:04;;;;;;;670.83;614.33;;;17.50;76.00;;;;;;4976663;28;20518;-60
2023/08/28 11:53:40;;;;;;;777.53;708.83;;;17.60;75.70;;;;;;4976847;28;20054;-60
2023/08/28 11:56:12;;;;;;;881.17;795.05;;;17.70;75.30;;;;;;4972189;28;20077;-60
2023/08/28 11:58:39;;;;;;;770.80;703.47;;;17.80;74.60;;;;;;4972456;28;20145;-60
2023/08/28 12:01:07;;;;;;;676.40;619.92;;;17.80;74.60;;;;;;4978140;28;20054;-60
2023/08/28 12:03:36;;;;;;;802.80;729.13;;;17.80;74.00;;;;;;4979278;28;20553;-60
2023/08/28 12:06:09;;;;;;;742.42;675.05;;;17.80;74.10;;;;;;4978757;28;20116;-60
2023/08/28 12:08:37;;;;;;;733.60;667.65;;;17.80;73.80;;;;;;4970123;28;20066;-60